sensor_id;sensor_type;location;lat;lon;timestamp;pressure;altitude;pressure_sealevel;temperature;humidity
63654;BME280;49809;47.418;19.080;2023-07-24T00:03:35;100233.78;;;20.41;93.21
63654;BME280;49809;47.418;19.080;2023-07-24T00:11:16;100214.19;;;20.32;93.11
63654;BME280;49809;47.418;19.080;2023-07-24T00:15:16;100215.28;;;20.31;92.57
63654;BME280;49809;47.418;19.080;2023-07-24T00:23:44;100210.97;;;20.30;92.75
63654;BME280;49809;47.418;19.080;2023-07-24T00:57:57;100186.81;;;20.21;94.21
63654;BME280;49809;47.418;19.080;2023-07-24T01:02:35;100178.91;;;20.16;94.56
63654;BME280;49809;47.418;19.080;2023-07-24T01:06:55;100173.53;;;20.16;94.79
63654;BME280;49809;47.418;19.080;2023-07-24T01:16:14;100171.47;;;20.13;95.74
63654;BME280;49809;47.418;19.080;2023-07-24T01:21:28;100179.53;;;20.13;96.79
63654;BME280;49809;47.418;19.080;2023-07-24T01:25:33;100171.00;;;20.11;96.03
63654;BME280;49809;47.418;19.080;2023-07-24T01:29:29;100173.84;;;20.06;96.74
63654;BME280;49809;47.418;19.080;2023-07-24T01:37:17;100177.62;;;19.96;97.47
63654;BME280;49809;47.418;19.080;2023-07-24T01:40:59;100165.47;;;19.90;97.57
63654;BME280;49809;47.418;19.080;2023-07-24T01:44:37;100161.53;;;19.88;98.33
63654;BME280;49809;47.418;19.080;2023-07-24T01:48:18;100162.31;;;19.88;98.39
63654;BME280;49809;47.418;19.080;2023-07-24T01:52:01;100158.34;;;19.86;98.90
63654;BME280;49809;47.418;19.080;2023-07-24T01:59:34;100164.03;;;19.76;99.34
63654;BME280;49809;47.418;19.080;2023-07-24T02:06:42;100165.31;;;19.70;100.00
63654;BME280;49809;47.418;19.080;2023-07-24T02:10:20;100156.78;;;19.68;100.00
63654;BME280;49809;47.418;19.080;2023-07-24T02:14:03;100150.16;;;19.65;100.00
63654;BME280;49809;47.418;19.080;2023-07-24T02:17:44;100155.34;;;19.62;100.00
63654;BME280;49809;47.418;19.080;2023-07-24T02:21:24;100162.28;;;19.63;100.00
63654;BME280;49809;47.418;19.080;2023-07-24T02:25:02;100161.03;;;19.69;100.00
63654;BME280;49809;47.418;19.080;2023-07-24T02:28:43;100161.03;;;19.69;100.00
63654;BME280;49809;47.418;19.080;2023-07-24T02:32:13;100166.25;;;19.74;100.00
63654;BME280;49809;47.418;19.080;2023-07-24T02:36:02;100159.63;;;19.80;100.00
63654;BME280;49809;47.418;19.080;2023-07-24T02:43:16;100152.69;;;19.79;100.00
63654;BME280;49809;47.418;19.080;2023-07-24T02:51:12;100153.31;;;19.84;100.00
63654;BME280;49809;47.418;19.080;2023-07-24T02:54:46;100166.41;;;19.86;100.00
63654;BME280;49809;47.418;19.080;2023-07-24T03:02:05;100160.72;;;19.87;100.00
63654;BME280;49809;47.418;19.080;2023-07-24T03:06:01;100161.69;;;19.83;100.00
63654;BME280;49809;47.418;19.080;2023-07-24T03:09:38;100164.38;;;19.83;100.00
63654;BME280;49809;47.418;19.080;2023-07-24T03:13:15;100166.41;;;19.77;100.00
63654;BME280;49809;47.418;19.080;2023-07-24T03:16:58;100159.31;;;19.73;100.00
63654;BME280;49809;47.418;19.080;2023-07-24T03:20:50;100144.44;;;19.67;100.00
63654;BME280;49809;47.418;19.080;2023-07-24T03:24:46;100151.84;;;19.61;100.00
63654;BME280;49809;47.418;19.080;2023-07-24T03:28:23;100148.56;;;19.56;100.00
63654;BME280;49809;47.418;19.080;2023-07-24T03:35:52;100143.94;;;19.47;100.00
63654;BME280;49809;47.418;19.080;2023-07-24T03:39:42;100144.84;;;19.43;100.00
63654;BME280;49809;47.418;19.080;2023-07-24T03:43:21;100144.06;;;19.42;100.00
63654;BME280;49809;47.418;19.080;2023-07-24T03:50:35;100144.22;;;19.37;100.00
63654;BME280;49809;47.418;19.080;2023-07-24T03:57:26;100128.25;;;19.32;100.00
63654;BME280;49809;47.418;19.080;2023-07-24T04:01:02;100131.91;;;19.36;100.00
63654;BME280;49809;47.418;19.080;2023-07-24T04:04:23;100134.12;;;19.34;100.00
63654;BME280;49809;47.418;19.080;2023-07-24T04:08:04;100140.91;;;19.40;100.00
63654;BME280;49809;47.418;19.080;2023-07-24T04:11:47;100139.69;;;19.46;100.00
63654;BME280;49809;47.418;19.080;2023-07-24T04:15:29;100140.16;;;19.48;100.00
63654;BME280;49809;47.418;19.080;2023-07-24T04:19:13;100128.97;;;19.55;100.00
63654;BME280;49809;47.418;19.080;2023-07-24T04:22:42;100140.97;;;19.58;100.00
63654;BME280;49809;47.418;19.080;2023-07-24T04:26:22;100133.69;;;19.67;100.00
63654;BME280;49809;47.418;19.080;2023-07-24T04:29:58;100134.19;;;19.86;100.00
63654;BME280;49809;47.418;19.080;2023-07-24T04:33:57;100143.03;;;19.78;100.00
63654;BME280;49809;47.418;19.080;2023-07-24T04:37:40;100133.22;;;19.90;100.00
63654;BME280;49809;47.418;19.080;2023-07-24T04:41:27;100131.94;;;20.05;100.00
63654;BME280;49809;47.418;19.080;2023-07-24T04:45:13;100128.00;;;20.11;100.00
63654;BME280;49809;47.418;19.080;2023-07-24T04:48:38;100127.34;;;20.14;100.00
63654;BME280;49809;47.418;19.080;2023-07-24T05:07:42;100138.81;;;20.66;97.74
63654;BME280;49809;47.418;19.080;2023-07-24T05:11:24;100152.37;;;20.78;96.85
63654;BME280;49809;47.418;19.080;2023-07-24T05:15:11;100154.22;;;20.95;97.11
63654;BME280;49809;47.418;19.080;2023-07-24T05:18:58;100147.50;;;21.10;96.40
63654;BME280;49809;47.418;19.080;2023-07-24T05:22:49;100153.00;;;21.22;94.99
63654;BME280;49809;47.418;19.080;2023-07-24T05:26:42;100154.16;;;21.42;94.39
63654;BME280;49809;47.418;19.080;2023-07-24T05:30:22;100156.66;;;21.47;93.80
63654;BME280;49809;47.418;19.080;2023-07-24T05:34:00;100148.00;;;21.62;93.16
63654;BME280;49809;47.418;19.080;2023-07-24T05:41:23;100146.59;;;21.56;93.91
63654;BME280;49809;47.418;19.080;2023-07-24T05:44:38;100148.78;;;21.83;93.34
63654;BME280;49809;47.418;19.080;2023-07-24T05:48:14;100138.66;;;22.01;92.40
63654;BME280;49809;47.418;19.080;2023-07-24T05:51:33;100148.75;;;22.25;91.53
63654;BME280;49809;47.418;19.080;2023-07-24T05:55:15;100144.94;;;22.26;92.00
63654;BME280;49809;47.418;19.080;2023-07-24T05:58:42;100139.13;;;22.36;92.10
63654;BME280;49809;47.418;19.080;2023-07-24T06:02:13;100145.31;;;22.36;91.84
63654;BME280;49809;47.418;19.080;2023-07-24T06:05:57;100138.19;;;22.65;91.21
63654;BME280;49809;47.418;19.080;2023-07-24T06:09:29;100142.16;;;22.79;89.90
63654;BME280;49809;47.418;19.080;2023-07-24T06:12:46;100142.03;;;23.00;89.84
63654;BME280;49809;47.418;19.080;2023-07-24T06:16:09;100128.31;;;23.05;90.63
63654;BME280;49809;47.418;19.080;2023-07-24T06:20:02;100119.31;;;23.13;88.77
63654;BME280;49809;47.418;19.080;2023-07-24T06:23:39;100118.28;;;23.30;89.54
63654;BME280;49809;47.418;19.080;2023-07-24T06:26:57;100116.25;;;23.51;88.98
63654;BME280;49809;47.418;19.080;2023-07-24T06:30:25;100121.13;;;23.73;88.39
63654;BME280;49809;47.418;19.080;2023-07-24T06:33:42;100112.88;;;23.82;87.26
63654;BME280;49809;47.418;19.080;2023-07-24T06:37:06;100120.00;;;24.02;87.76
63654;BME280;49809;47.418;19.080;2023-07-24T06:40:29;100112.63;;;23.87;87.29
63654;BME280;49809;47.418;19.080;2023-07-24T06:44:08;100114.75;;;24.21;85.79
63654;BME280;49809;47.418;19.080;2023-07-24T06:51:34;100125.44;;;24.46;84.47
63654;BME280;49809;47.418;19.080;2023-07-24T06:54:51;100123.88;;;24.76;82.76
63654;BME280;49809;47.418;19.080;2023-07-24T06:58:28;100122.22;;;24.72;82.61
63654;BME280;49809;47.418;19.080;2023-07-24T07:01:47;100129.91;;;25.01;83.04
63654;BME280;49809;47.418;19.080;2023-07-24T07:05:07;100122.72;;;25.59;80.29
63654;BME280;49809;47.418;19.080;2023-07-24T07:08:36;100128.13;;;25.24;80.12
63654;BME280;49809;47.418;19.080;2023-07-24T07:12:13;100113.12;;;25.46;80.08
63654;BME280;49809;47.418;19.080;2023-07-24T07:15:44;100111.81;;;25.40;79.06
63654;BME280;49809;47.418;19.080;2023-07-24T07:19:31;100110.31;;;26.19;77.18
63654;BME280;49809;47.418;19.080;2023-07-24T07:23:02;100096.97;;;26.75;74.35
63654;BME280;49809;47.418;19.080;2023-07-24T07:26:35;100088.78;;;26.98;73.62
63654;BME280;49809;47.418;19.080;2023-07-24T07:29:52;100080.72;;;26.79;72.24
63654;BME280;49809;47.418;19.080;2023-07-24T07:33:07;100087.03;;;27.39;71.35
63654;BME280;49809;47.418;19.080;2023-07-24T07:36:44;100082.97;;;27.89;69.97
63654;BME280;49809;47.418;19.080;2023-07-24T07:40:12;100084.13;;;28.22;67.38
63654;BME280;49809;47.418;19.080;2023-07-24T07:43:44;100073.91;;;28.56;66.52
63654;BME280;49809;47.418;19.080;2023-07-24T07:47:13;100080.97;;;29.18;63.69
63654;BME280;49809;47.418;19.080;2023-07-24T07:51:08;100078.69;;;29.24;63.07
63654;BME280;49809;47.418;19.080;2023-07-24T07:55:10;100061.88;;;30.40;60.53
63654;BME280;49809;47.418;19.080;2023-07-24T07:58:31;100068.84;;;31.08;57.24
63654;BME280;49809;47.418;19.080;2023-07-24T08:02:04;100065.16;;;31.61;54.71
63654;BME280;49809;47.418;19.080;2023-07-24T08:05:27;100073.41;;;31.50;55.05
63654;BME280;49809;47.418;19.080;2023-07-24T08:08:47;100063.53;;;31.74;54.12
63654;BME280;49809;47.418;19.080;2023-07-24T08:12:21;100058.75;;;32.89;51.59
63654;BME280;49809;47.418;19.080;2023-07-24T08:15:52;100067.28;;;33.35;49.27
63654;BME280;49809;47.418;19.080;2023-07-24T08:19:19;100056.00;;;32.44;50.29
63654;BME280;49809;47.418;19.080;2023-07-24T08:22:40;100059.28;;;32.76;50.45
63654;BME280;49809;47.418;19.080;2023-07-24T08:26:11;100069.41;;;33.51;49.08
63654;BME280;49809;47.418;19.080;2023-07-24T08:29:35;100054.66;;;33.98;47.73
63654;BME280;49809;47.418;19.080;2023-07-24T08:33:21;100060.94;;;34.26;46.23
63654;BME280;49809;47.418;19.080;2023-07-24T08:36:56;100069.06;;;34.79;44.10
63654;BME280;49809;47.418;19.080;2023-07-24T08:40:32;100058.06;;;34.56;43.25
63654;BME280;49809;47.418;19.080;2023-07-24T08:44:01;100062.00;;;34.55;44.84
63654;BME280;49809;47.418;19.080;2023-07-24T08:47:49;100061.69;;;33.99;44.53
63654;BME280;49809;47.418;19.080;2023-07-24T08:51:14;100042.16;;;34.44;43.72
63654;BME280;49809;47.418;19.080;2023-07-24T08:55:02;100047.28;;;35.08;41.87
63654;BME280;49809;47.418;19.080;2023-07-24T08:58:33;100045.91;;;34.54;43.22
63654;BME280;49809;47.418;19.080;2023-07-24T09:02:07;100039.19;;;35.93;40.96
63654;BME280;49809;47.418;19.080;2023-07-24T09:05:30;100032.06;;;35.59;40.56
63654;BME280;49809;47.418;19.080;2023-07-24T09:09:00;100035.31;;;35.18;40.79
63654;BME280;49809;47.418;19.080;2023-07-24T09:12:24;100020.97;;;35.99;39.40
63654;BME280;49809;47.418;19.080;2023-07-24T09:15:44;100009.75;;;37.12;37.06
63654;BME280;49809;47.418;19.080;2023-07-24T09:19:25;100017.88;;;37.03;35.86
63654;BME280;49809;47.418;19.080;2023-07-24T09:22:53;100006.28;;;37.62;34.73
63654;BME280;49809;47.418;19.080;2023-07-24T09:26:19;100004.09;;;36.13;35.35
63654;BME280;49809;47.418;19.080;2023-07-24T09:29:52;100003.31;;;37.57;34.07
63654;BME280;49809;47.418;19.080;2023-07-24T09:33:37;100000.75;;;37.75;31.17
63654;BME280;49809;47.418;19.080;2023-07-24T09:37:22;99996.34;;;38.93;29.58
63654;BME280;49809;47.418;19.080;2023-07-24T09:40:44;100009.72;;;38.73;29.42
63654;BME280;49809;47.418;19.080;2023-07-24T09:44:27;100007.38;;;38.50;29.86
63654;BME280;49809;47.418;19.080;2023-07-24T09:47:47;100002.91;;;39.08;30.80
63654;BME280;49809;47.418;19.080;2023-07-24T09:51:07;99991.69;;;38.47;29.44
63654;BME280;49809;47.418;19.080;2023-07-24T09:54:32;99971.25;;;38.66;30.08
63654;BME280;49809;47.418;19.080;2023-07-24T09:57:52;99961.47;;;37.04;32.02
63654;BME280;49809;47.418;19.080;2023-07-24T10:01:39;99974.66;;;38.01;31.36
63654;BME280;49809;47.418;19.080;2023-07-24T10:05:18;99969.66;;;37.96;31.03
63654;BME280;49809;47.418;19.080;2023-07-24T10:08:42;99961.84;;;37.82;31.32
63654;BME280;49809;47.418;19.080;2023-07-24T10:11:59;99952.56;;;37.89;30.89
63654;BME280;49809;47.418;19.080;2023-07-24T10:15:44;99954.91;;;38.59;29.74
63654;BME280;49809;47.418;19.080;2023-07-24T10:19:13;99955.41;;;38.88;28.36
63654;BME280;49809;47.418;19.080;2023-07-24T10:23:03;99952.78;;;37.94;28.93
63654;BME280;49809;47.418;19.080;2023-07-24T10:26:35;99937.28;;;38.87;27.60
63654;BME280;49809;47.418;19.080;2023-07-24T10:30:15;99938.13;;;39.77;27.50
63654;BME280;49809;47.418;19.080;2023-07-24T10:34:05;99928.84;;;39.71;27.88
63654;BME280;49809;47.418;19.080;2023-07-24T10:37:39;99915.28;;;39.45;28.56
63654;BME280;49809;47.418;19.080;2023-07-24T10:41:36;99916.41;;;39.75;26.99
63654;BME280;49809;47.418;19.080;2023-07-24T10:45:09;99907.97;;;40.15;26.85
63654;BME280;49809;47.418;19.080;2023-07-24T10:48:47;99909.28;;;39.65;27.67
63654;BME280;49809;47.418;19.080;2023-07-24T10:52:30;99909.13;;;38.58;28.50
63654;BME280;49809;47.418;19.080;2023-07-24T10:56:09;99912.19;;;38.38;29.44
63654;BME280;49809;47.418;19.080;2023-07-24T10:59:37;99901.56;;;39.51;27.35
63654;BME280;49809;47.418;19.080;2023-07-24T11:03:42;99890.06;;;39.22;27.98
63654;BME280;49809;47.418;19.080;2023-07-24T11:07:03;99894.28;;;40.30;25.97
63654;BME280;49809;47.418;19.080;2023-07-24T11:10:46;99871.75;;;40.64;25.69
63654;BME280;49809;47.418;19.080;2023-07-24T11:14:30;99869.63;;;40.14;26.43
63654;BME280;49809;47.418;19.080;2023-07-24T11:18:04;99863.31;;;39.19;28.23
63654;BME280;49809;47.418;19.080;2023-07-24T11:21:52;99859.13;;;39.63;26.54
63654;BME280;49809;47.418;19.080;2023-07-24T11:25:16;99860.38;;;39.89;25.07
63654;BME280;49809;47.418;19.080;2023-07-24T11:28:58;99852.06;;;40.17;26.11
63654;BME280;49809;47.418;19.080;2023-07-24T11:32:40;99843.94;;;39.28;27.06
63654;BME280;49809;47.418;19.080;2023-07-24T11:36:36;99832.59;;;40.53;26.29
63654;BME280;49809;47.418;19.080;2023-07-24T11:40:14;99814.94;;;40.84;24.62
63654;BME280;49809;47.418;19.080;2023-07-24T11:44:10;99808.56;;;41.25;24.41
63654;BME280;49809;47.418;19.080;2023-07-24T11:47:47;99808.81;;;40.19;24.45
63654;BME280;49809;47.418;19.080;2023-07-24T11:51:49;99799.16;;;40.66;25.12
63654;BME280;49809;47.418;19.080;2023-07-24T11:55:31;99793.44;;;40.69;25.15
63654;BME280;49809;47.418;19.080;2023-07-24T11:59:13;99780.84;;;40.50;26.01
63654;BME280;49809;47.418;19.080;2023-07-24T12:02:32;99780.91;;;41.31;24.62
63654;BME280;49809;47.418;19.080;2023-07-24T12:06:15;99776.22;;;41.46;23.92
63654;BME280;49809;47.418;19.080;2023-07-24T12:09:53;99766.78;;;39.75;26.25
63654;BME280;49809;47.418;19.080;2023-07-24T12:13:22;99778.81;;;40.60;26.00
63654;BME280;49809;47.418;19.080;2023-07-24T12:17:07;99767.03;;;40.32;25.95
63654;BME280;49809;47.418;19.080;2023-07-24T12:20:55;99766.47;;;41.03;24.76
63654;BME280;49809;47.418;19.080;2023-07-24T12:25:08;99747.53;;;41.63;23.79
63654;BME280;49809;47.418;19.080;2023-07-24T12:28:31;99754.28;;;40.58;25.67
63654;BME280;49809;47.418;19.080;2023-07-24T12:32:02;99748.94;;;40.88;25.43
63654;BME280;49809;47.418;19.080;2023-07-24T12:35:39;99740.34;;;39.83;26.38
63654;BME280;49809;47.418;19.080;2023-07-24T12:39:15;99731.00;;;40.32;26.54
63654;BME280;49809;47.418;19.080;2023-07-24T12:42:32;99725.88;;;39.79;27.58
63654;BME280;49809;47.418;19.080;2023-07-24T12:46:07;99717.19;;;38.55;29.65
63654;BME280;49809;47.418;19.080;2023-07-24T12:49:44;99710.25;;;38.51;29.35
63654;BME280;49809;47.418;19.080;2023-07-24T12:53:07;99704.00;;;37.41;30.76
63654;BME280;49809;47.418;19.080;2023-07-24T12:56:43;99723.50;;;37.25;30.34
63654;BME280;49809;47.418;19.080;2023-07-24T13:00:16;99708.91;;;37.25;30.18
63654;BME280;49809;47.418;19.080;2023-07-24T13:04:07;99704.37;;;36.84;30.72
63654;BME280;49809;47.418;19.080;2023-07-24T13:07:46;99690.91;;;36.35;32.26
63654;BME280;49809;47.418;19.080;2023-07-24T13:11:22;99692.22;;;36.18;33.21
63654;BME280;49809;47.418;19.080;2023-07-24T13:14:55;99680.37;;;36.05;33.24
63654;BME280;49809;47.418;19.080;2023-07-24T13:39:11;99641.09;;;35.02;34.27
63654;BME280;49809;47.418;19.080;2023-07-24T14:05:21;99612.94;;;34.33;33.53
63654;BME280;49809;47.418;19.080;2023-07-24T14:08:58;99601.41;;;33.86;34.46
63654;BME280;49809;47.418;19.080;2023-07-24T14:12:42;99598.81;;;34.15;34.27
63654;BME280;49809;47.418;19.080;2023-07-24T14:16:25;99580.31;;;34.67;33.93
63654;BME280;49809;47.418;19.080;2023-07-24T14:20:06;99566.94;;;34.69;33.05
63654;BME280;49809;47.418;19.080;2023-07-24T14:24:58;99556.50;;;35.22;33.01
63654;BME280;49809;47.418;19.080;2023-07-24T14:29:10;99542.28;;;36.03;31.91
63654;BME280;49809;47.418;19.080;2023-07-24T14:40:11;99532.03;;;34.66;32.16
63654;BME280;49809;47.418;19.080;2023-07-24T14:43:43;99523.97;;;34.59;31.04
63654;BME280;49809;47.418;19.080;2023-07-24T14:47:00;99525.69;;;34.69;30.99
63654;BME280;49809;47.418;19.080;2023-07-24T14:53:26;99504.19;;;34.64;31.48
63654;BME280;49809;47.418;19.080;2023-07-24T14:57:24;99499.94;;;34.47;31.34
63654;BME280;49809;47.418;19.080;2023-07-24T15:01:13;99503.00;;;34.65;31.31
63654;BME280;49809;47.418;19.080;2023-07-24T15:04:51;99485.66;;;34.52;31.63
63654;BME280;49809;47.418;19.080;2023-07-24T15:08:21;99468.69;;;34.41;32.10
63654;BME280;49809;47.418;19.080;2023-07-24T15:12:01;99460.81;;;34.27;32.17
63654;BME280;49809;47.418;19.080;2023-07-24T15:15:51;99471.97;;;34.20;32.88
63654;BME280;49809;47.418;19.080;2023-07-24T15:19:18;99470.25;;;34.26;33.53
63654;BME280;49809;47.418;19.080;2023-07-24T15:26:32;99454.97;;;33.92;33.39
63654;BME280;49809;47.418;19.080;2023-07-24T15:38:27;99447.75;;;34.15;32.59
63654;BME280;49809;47.418;19.080;2023-07-24T15:46:00;99447.22;;;34.03;31.72
63654;BME280;49809;47.418;19.080;2023-07-24T15:53:28;99454.22;;;33.00;32.74
63654;BME280;49809;47.418;19.080;2023-07-24T15:57:02;99454.81;;;32.92;33.02
63654;BME280;49809;47.418;19.080;2023-07-24T16:00:31;99470.41;;;32.75;33.63
63654;BME280;49809;47.418;19.080;2023-07-24T16:04:23;99464.81;;;32.35;33.91
63654;BME280;49809;47.418;19.080;2023-07-24T16:08:17;99465.16;;;32.61;33.71
63654;BME280;49809;47.418;19.080;2023-07-24T16:12:08;99458.47;;;32.62;33.47
63654;BME280;49809;47.418;19.080;2023-07-24T16:15:53;99445.69;;;32.55;34.15
63654;BME280;49809;47.418;19.080;2023-07-24T16:19:56;99433.88;;;32.15;35.28
63654;BME280;49809;47.418;19.080;2023-07-24T16:24:36;99422.16;;;32.58;35.51
63654;BME280;49809;47.418;19.080;2023-07-24T16:32:26;99410.12;;;32.09;37.28
63654;BME280;49809;47.418;19.080;2023-07-24T16:36:17;99397.19;;;32.09;37.16
63654;BME280;49809;47.418;19.080;2023-07-24T16:48:08;99393.34;;;31.57;37.85
63654;BME280;49809;47.418;19.080;2023-07-24T16:52:01;99385.88;;;31.61;38.71
63654;BME280;49809;47.418;19.080;2023-07-24T16:56:18;99388.91;;;31.39;39.06
63654;BME280;49809;47.418;19.080;2023-07-24T17:08:44;99384.97;;;31.14;39.77
63654;BME280;49809;47.418;19.080;2023-07-24T17:12:19;99394.06;;;31.03;40.32
63654;BME280;49809;47.418;19.080;2023-07-24T17:16:08;99398.63;;;31.14;40.42
63654;BME280;49809;47.418;19.080;2023-07-24T17:19:58;99399.13;;;31.05;40.58
63654;BME280;49809;47.418;19.080;2023-07-24T17:24:05;99395.22;;;30.72;41.17
63654;BME280;49809;47.418;19.080;2023-07-24T17:49:40;99377.69;;;30.32;43.12
63654;BME280;49809;47.418;19.080;2023-07-24T17:53:17;99380.97;;;30.16;43.36
63654;BME280;49809;47.418;19.080;2023-07-24T17:56:51;99367.84;;;30.04;43.99
63654;BME280;49809;47.418;19.080;2023-07-24T18:00:18;99377.22;;;30.00;44.25
63654;BME280;49809;47.418;19.080;2023-07-24T18:03:29;99369.53;;;29.84;45.00
63654;BME280;49809;47.418;19.080;2023-07-24T18:07:11;99353.94;;;29.85;45.23
63654;BME280;49809;47.418;19.080;2023-07-24T18:11:00;99361.81;;;29.75;45.60
63654;BME280;49809;47.418;19.080;2023-07-24T18:14:42;99361.50;;;29.66;46.07
63654;BME280;49809;47.418;19.080;2023-07-24T18:18:21;99361.16;;;29.61;46.57
63654;BME280;49809;47.418;19.080;2023-07-24T18:22:00;99365.88;;;29.53;47.17
63654;BME280;49809;47.418;19.080;2023-07-24T18:25:53;99351.50;;;29.49;47.35
63654;BME280;49809;47.418;19.080;2023-07-24T18:29:25;99344.97;;;29.29;48.27
63654;BME280;49809;47.418;19.080;2023-07-24T18:33:11;99325.91;;;29.29;48.26
63654;BME280;49809;47.418;19.080;2023-07-24T18:36:58;99322.87;;;29.16;48.56
63654;BME280;49809;47.418;19.080;2023-07-24T18:41:00;99327.97;;;29.11;49.44
63654;BME280;49809;47.418;19.080;2023-07-24T18:44:32;99333.06;;;29.05;49.91
63654;BME280;49809;47.418;19.080;2023-07-24T18:51:55;99345.66;;;28.85;50.50
63654;BME280;49809;47.418;19.080;2023-07-24T18:55:45;99347.59;;;28.84;51.20
63654;BME280;49809;47.418;19.080;2023-07-24T18:59:27;99345.31;;;28.72;51.71
63654;BME280;49809;47.418;19.080;2023-07-24T19:03:19;99340.66;;;28.66;51.18
63654;BME280;49809;47.418;19.080;2023-07-24T19:14:43;99332.97;;;28.36;52.75
63654;BME280;49809;47.418;19.080;2023-07-24T19:18:31;99337.25;;;28.23;53.29
63654;BME280;49809;47.418;19.080;2023-07-24T19:22:05;99333.75;;;28.08;54.23
63654;BME280;49809;47.418;19.080;2023-07-24T19:25:33;99333.41;;;27.92;54.46
63654;BME280;49809;47.418;19.080;2023-07-24T19:29:09;99347.78;;;27.75;54.74
63654;BME280;49809;47.418;19.080;2023-07-24T19:32:32;99346.25;;;27.74;55.17
63654;BME280;49809;47.418;19.080;2023-07-24T19:36:15;99350.16;;;27.69;56.00
63654;BME280;49809;47.418;19.080;2023-07-24T19:39:46;99364.50;;;27.59;56.36
63654;BME280;49809;47.418;19.080;2023-07-24T19:43:16;99355.16;;;27.56;56.95
63654;BME280;49809;47.418;19.080;2023-07-24T19:46:35;99354.78;;;27.54;57.10
63654;BME280;49809;47.418;19.080;2023-07-24T19:49:53;99350.50;;;27.50;57.41
63654;BME280;49809;47.418;19.080;2023-07-24T19:53:20;99352.41;;;27.46;57.53
63654;BME280;49809;47.418;19.080;2023-07-24T19:56:43;99350.47;;;27.46;58.01
63654;BME280;49809;47.418;19.080;2023-07-24T20:00:27;99344.63;;;27.37;58.61
63654;BME280;49809;47.418;19.080;2023-07-24T20:03:46;99347.34;;;27.34;59.03
63654;BME280;49809;47.418;19.080;2023-07-24T20:07:32;99345.00;;;27.14;60.33
63654;BME280;49809;47.418;19.080;2023-07-24T20:11:15;99345.37;;;27.09;60.24
63654;BME280;49809;47.418;19.080;2023-07-24T20:14:54;99346.84;;;26.89;61.23
63654;BME280;49809;47.418;19.080;2023-07-24T20:18:17;99343.00;;;26.94;61.40
63654;BME280;49809;47.418;19.080;2023-07-24T20:21:44;99331.72;;;26.88;62.03
63654;BME280;49809;47.418;19.080;2023-07-24T20:25:14;99326.62;;;26.76;63.00
63654;BME280;49809;47.418;19.080;2023-07-24T20:28:51;99317.28;;;26.66;62.89
63654;BME280;49809;47.418;19.080;2023-07-24T20:32:46;99311.41;;;26.54;64.40
63654;BME280;49809;47.418;19.080;2023-07-24T20:36:35;99307.09;;;26.46;63.96
63654;BME280;49809;47.418;19.080;2023-07-24T20:40:21;99312.06;;;26.29;64.96
63654;BME280;49809;47.418;19.080;2023-07-24T20:52:01;99312.28;;;26.03;66.67
63654;BME280;49809;47.418;19.080;2023-07-24T20:56:04;99302.91;;;25.93;66.75
63654;BME280;49809;47.418;19.080;2023-07-24T20:59:53;99295.84;;;25.82;67.66
63654;BME280;49809;47.418;19.080;2023-07-24T21:03:41;99301.97;;;25.72;68.12
63654;BME280;49809;47.418;19.080;2023-07-24T21:07:51;99286.38;;;25.55;69.74
63654;BME280;49809;47.418;19.080;2023-07-24T21:11:27;99298.97;;;25.36;70.52
63654;BME280;49809;47.418;19.080;2023-07-24T21:15:13;99310.06;;;25.24;71.61
63654;BME280;49809;47.418;19.080;2023-07-24T21:23:17;99331.59;;;25.10;71.46
63654;BME280;49809;47.418;19.080;2023-07-24T21:26:59;99357.12;;;25.12;71.99
63654;BME280;49809;47.418;19.080;2023-07-24T21:30:47;99370.16;;;25.00;72.76
63654;BME280;49809;47.418;19.080;2023-07-24T21:34:07;99375.50;;;24.93;73.22
63654;BME280;49809;47.418;19.080;2023-07-24T21:37:49;99382.72;;;24.85;73.86
63654;BME280;49809;47.418;19.080;2023-07-24T21:41:30;99387.06;;;24.90;74.12
63654;BME280;49809;47.418;19.080;2023-07-24T21:45:23;99393.53;;;24.85;74.69
63654;BME280;49809;47.418;19.080;2023-07-24T21:52:51;99406.22;;;24.78;75.55
63654;BME280;49809;47.418;19.080;2023-07-24T21:56:16;99408.03;;;24.70;76.10
63654;BME280;49809;47.418;19.080;2023-07-24T22:00:09;99416.53;;;24.68;76.23
63654;BME280;49809;47.418;19.080;2023-07-24T22:07:42;99424.47;;;24.54;77.33
63654;BME280;49809;47.418;19.080;2023-07-24T22:11:45;99432.91;;;24.49;77.34
63654;BME280;49809;47.418;19.080;2023-07-24T22:15:35;99418.50;;;24.45;77.16
63654;BME280;49809;47.418;19.080;2023-07-24T22:19:43;99416.97;;;24.44;77.14
63654;BME280;49809;47.418;19.080;2023-07-24T22:28:28;99397.63;;;24.42;77.68
63654;BME280;49809;47.418;19.080;2023-07-24T22:40:07;99400.28;;;24.16;79.21
63654;BME280;49809;47.418;19.080;2023-07-24T22:43:56;99390.28;;;24.16;79.17
63654;BME280;49809;47.418;19.080;2023-07-24T22:47:37;99365.03;;;24.09;79.57
63654;BME280;49809;47.418;19.080;2023-07-24T22:51:11;99340.28;;;24.07;78.42
63654;BME280;49809;47.418;19.080;2023-07-24T22:54:54;99365.03;;;24.09;78.39
63654;BME280;49809;47.418;19.080;2023-07-24T22:59:23;99367.75;;;24.09;78.74
63654;BME280;49809;47.418;19.080;2023-07-24T23:03:22;99374.06;;;23.94;80.69
63654;BME280;49809;47.418;19.080;2023-07-24T23:07:02;99407.63;;;23.93;81.58
63654;BME280;49809;47.418;19.080;2023-07-24T23:11:04;99424.94;;;23.88;82.29
63654;BME280;49809;47.418;19.080;2023-07-24T23:23:11;99410.78;;;23.72;83.20
63654;BME280;49809;47.418;19.080;2023-07-24T23:27:09;99427.34;;;23.70;83.72
63654;BME280;49809;47.418;19.080;2023-07-24T23:31:57;99455.50;;;23.69;83.92
63654;BME280;49809;47.418;19.080;2023-07-24T23:35:58;99496.25;;;23.61;84.74